Marietta, GA

7:33 AM EDT on September 03, 2015 (GMT -0400)
Grove Meade | | Change Station
CLOSE
Current Station
Personal Weather Station
Location: Marietta, GA
Elevation: 1033 ft
Nearby Weather Stations

Elev 1033 ft 33.93 °N, 84.47 °W | Updated 53 seconds ago

Overcast
Overcast
71.2 °F
Feels Like 71.2 °F
N
0.0
Wind Variable Wind from WNW

Today
High -- | Low -- °F
--% Chance of Precip.
Yesterday
High -- | Low -- °F
Precip. -- in
7:12 AM 8:01 PM
Waning Gibbous, 71% visible
Pressure 29.98 in
Visibility 10.0 miles
Clouds Scattered Clouds 5000 ft
Mostly Cloudy 15000 ft
Overcast 25000 ft
Dew Point 69 °F
Humidity 94%
Rainfall 0.00 in
Snow Depth Not available.
UV 0 out of 12
Pollen 8.90 out of 12
Air Quality Not available.
Flu Activity Not available.
METAR KMGE 031058Z 27006KT 10SM SCT050 BKN150 OVC250 23/22 A3001 RMK AO2A SLP152 T02280218 $
Pressure 29.98 in
Visibility 10.0 miles
Clouds Scattered Clouds 5000 ft
Mostly Cloudy 15000 ft
Overcast 25000 ft
Dew Point 69 °F
Humidity 94%
Rainfall 0.00 in
Snow Depth Not available.
UV 0 out of 12
Pollen 8.90 out of 12
Air Quality Not available.
Flu Activity Not available.
METAR KMGE 031058Z 27006KT 10SM SCT050 BKN150 OVC250 23/22 A3001 RMK AO2A SLP152 T02280218 $

10-Day Weather Forecast

×

Almanac

Astronomy

Sep. 03, 2015 Rise Set
Actual Time
Civil Twilight
Nautical Twilight
Astronomical Twilight
Moon
Length of Visible Light
Length of Day
Tomorrow will be .
, % of the Moon is Illuminated

Today's Extremes

State Highs State Lows

Community

WunderPhotos

Upload Photos

1,851,933 photos uploaded!

WunderBlogs® & News

Nearby

Air Quality

  Air Quality AQ Index Pollutant
Not available.

Snow Depth

Station Depth Elevation

Earthquake Activity

City Distance Mag. Time & Date
Minimum magnitude displayed is 2.5.

Coastal Water Temperatures

Place Temperature

Stations

Nearby Weather Stations

Station Location Temp. Windchill Dew Point Humidity Wind Precip. Elev Updated Type